VAM | Vabird-VBD

Virtual Vabird! Aerolínea Virtual de habla hispana, desde 2011




 METAR AND TAF INFORMATION
METAR FOR GCHI
ADDS - METARS form results

(1049 UTC 03 July 2020)
Data provider http://aviationweather.gov/metar/data/
 
METAR text: GCHI 031030Z 35019KT 330V030 9999 FEW025 24/18 Q1020
Conditions at: GCHI (HIERRO AIRPORT , ES) observed 1030 UTC 03 July 2020
Temperature: 24.0°C (75°F)
Dewpoint: 18.0°C (64°F) [RH = 69%]
Pressure (altimeter): 30.12 inches Hg (1020.0 mb)
Winds: from the N (350 degrees) at 22 MPH (19 knots; 9.8 m/s)
Visibility: 6 or more miles (10+ km)
Ceiling: at least 12,000 feet AGL
Clouds: few clouds at 2500 feet AGL
Weather: no significant weather observed at this time

METAR text: GCHI 031000Z 35021KT 9999 FEW022 23/18 Q1020
Conditions at: GCHI (HIERRO AIRPORT , ES) observed 1000 UTC 03 July 2020
Temperature: 23.0°C (73°F)
Dewpoint: 18.0°C (64°F) [RH = 73%]
Pressure (altimeter): 30.12 inches Hg (1020.0 mb)
Winds: from the N (350 degrees) at 24 MPH (21 knots; 10.8 m/s)
Visibility: 6 or more miles (10+ km)
Ceiling: at least 12,000 feet AGL
Clouds: few clouds at 2200 feet AGL
Weather: no significant weather observed at this time

Forecast for: GCHI (HIERRO AIRPORT , ES)
Text: TAF GCHI 030800Z 0309/0409 01023KT 9999 BKN020 TX26/0314Z TN21/0406Z
Forecast period: 0900 UTC 03 July 2020 to 0900 UTC 04 July 2020
Forecast type: FROM: standard forecast or significant change
Winds: from the N (10 degrees) at 26 MPH (23 knots; 11.8 m/s)
Visibility: 6 or more miles 10+ km)
Ceiling: 2000 feet AGL
Clouds: broken clouds at 2000 feet AGL
Weather: no significant weather forecast for this period
Text: PROB40
Forecast period: 0900 UTC 03 July 2020 to 0900 UTC 04 July 2020
Forecast type: TEMPORARY: The following changes expected for less than half the time period
Winds: from the N (10 degrees) at 26 MPH (23 knots; 11.8 m/s)
gusting to 38 MPH (33 knots; 17.0 m/s)
Visibility: missing
Ceiling: unknown
Clouds: missing
Weather: no significant weather forecast for this period

 AIRPORT MAP

 RUNWAY INFORMATION
Runway 16 Runway length 4101 ft Runway width 98 ft
Runway elevation 71 ft Runway displaced threshold 0 ft Runway heading 153
Runway 34 Runway length 4101 ft Runway width 98 ft
Runway elevation 103 ft Runway displaced threshold 0 ft Runway heading 333

 AIRPORT FREQUENCIES
Type A/D Name CANARIAS A Frequency 126.1 MHZ
Type GND Name GND Frequency 121.6 MHZ
Type TWR Name TWR Frequency 118.1 MHZ

 AIRPORT NEAR NAVIGATION AIDS
Type NDB Name Hierro Frequency 376 KHZ
Type DME Name Hierro Frequency 113200 KHZ